createdAt,value
2018-06-30T00:01:18.101Z,19.60
2018-06-30T00:03:53.542Z,19.59
2018-06-30T00:06:26.358Z,19.58
2018-06-30T00:08:57.353Z,19.56
2018-06-30T00:11:27.079Z,19.56
2018-06-30T00:14:04.460Z,19.54
2018-06-30T00:16:36.023Z,19.53
2018-06-30T00:19:06.430Z,19.51
2018-06-30T00:21:37.126Z,19.49
2018-06-30T00:24:10.300Z,19.49
2018-06-30T00:26:40.538Z,19.48
2018-06-30T00:29:12.136Z,19.46
2018-06-30T00:31:43.366Z,19.45
2018-06-30T00:34:14.220Z,19.43
2018-06-30T00:36:44.182Z,19.42
2018-06-30T00:39:14.052Z,19.41
2018-06-30T00:41:43.684Z,19.40
2018-06-30T00:44:13.836Z,19.39
2018-06-30T00:46:47.290Z,19.38
2018-06-30T00:49:19.602Z,19.37
2018-06-30T00:51:52.981Z,19.35
2018-06-30T00:54:22.626Z,19.35
2018-06-30T00:56:59.274Z,19.33
2018-06-30T00:59:28.883Z,19.33
2018-06-30T01:01:58.817Z,19.31
2018-06-30T01:04:29.298Z,19.31
2018-06-30T01:06:59.002Z,19.29
2018-06-30T01:09:28.630Z,19.27
2018-06-30T01:11:58.083Z,19.28
2018-06-30T01:14:27.725Z,19.27
2018-06-30T01:16:58.339Z,19.25
2018-06-30T01:19:28.926Z,19.25
2018-06-30T01:22:01.575Z,19.23
2018-06-30T01:24:31.180Z,19.22
2018-06-30T01:27:00.894Z,19.22
2018-06-30T01:29:30.938Z,19.20
2018-06-30T01:32:03.634Z,19.20
2018-06-30T01:34:33.178Z,19.19
2018-06-30T01:37:03.102Z,19.18
2018-06-30T01:39:32.600Z,19.17
2018-06-30T01:42:02.765Z,19.16
2018-06-30T01:44:33.991Z,19.15
2018-06-30T01:47:03.667Z,19.14
2018-06-30T01:49:35.234Z,19.14
2018-06-30T01:52:06.686Z,19.13
2018-06-30T01:54:37.278Z,19.12
2018-06-30T01:57:10.238Z,19.12
2018-06-30T01:59:40.349Z,19.09
2018-06-30T02:02:10.378Z,19.09
2018-06-30T02:04:42.560Z,19.09
2018-06-30T02:07:18.148Z,19.05
2018-06-30T02:09:49.116Z,19.06
2018-06-30T02:12:19.918Z,19.04
2018-06-30T02:14:50.022Z,19.04
2018-06-30T02:17:20.004Z,19.03
2018-06-30T02:19:49.951Z,19.02
2018-06-30T02:22:19.523Z,19.01
2018-06-30T02:24:50.728Z,19.00
2018-06-30T02:27:20.235Z,19.00
2018-06-30T02:29:49.684Z,18.99
2018-06-30T02:32:19.854Z,18.99
2018-06-30T02:34:50.351Z,18.97
2018-06-30T02:37:20.125Z,18.95
2018-06-30T02:39:49.680Z,18.95
2018-06-30T02:42:20.274Z,18.94
2018-06-30T02:44:50.341Z,18.94
2018-06-30T02:47:20.853Z,18.92
2018-06-30T02:49:50.437Z,18.92
2018-06-30T02:52:21.619Z,18.91
2018-06-30T02:54:51.308Z,18.90
2018-06-30T02:57:21.690Z,18.90
2018-06-30T02:59:51.165Z,18.88
2018-06-30T03:02:20.712Z,18.88
2018-06-30T03:04:53.278Z,18.88
2018-06-30T03:07:25.491Z,18.86
2018-06-30T03:09:56.503Z,18.84
2018-06-30T03:12:27.730Z,18.85
2018-06-30T03:14:57.320Z,18.83
2018-06-30T03:17:27.304Z,18.84
2018-06-30T03:19:57.501Z,18.83
2018-06-30T03:22:27.689Z,18.81
2018-06-30T03:24:57.080Z,18.82
2018-06-30T03:27:27.372Z,18.81
2018-06-30T03:29:56.816Z,18.80
2018-06-30T03:32:26.301Z,18.80
2018-06-30T03:34:55.820Z,18.80
2018-06-30T03:37:25.728Z,18.79
2018-06-30T03:39:56.463Z,18.79
2018-06-30T03:42:26.873Z,18.79
2018-06-30T03:44:56.874Z,18.80
2018-06-30T03:47:26.416Z,18.78
2018-06-30T03:49:56.076Z,18.78
2018-06-30T03:52:25.767Z,18.78
2018-06-30T03:54:55.492Z,18.78
2018-06-30T03:57:25.108Z,18.77
2018-06-30T03:59:54.605Z,18.78
2018-06-30T04:02:24.183Z,18.78
2018-06-30T04:04:54.471Z,18.79
2018-06-30T04:07:24.204Z,18.78
2018-06-30T04:09:53.854Z,18.79
2018-06-30T04:12:23.493Z,18.78
2018-06-30T04:14:52.987Z,18.79
2018-06-30T04:17:22.565Z,18.80
2018-06-30T04:19:52.072Z,18.80
2018-06-30T04:22:22.097Z,18.80
2018-06-30T04:24:52.340Z,18.79
2018-06-30T04:27:22.109Z,18.80
2018-06-30T04:29:51.692Z,18.81
2018-06-30T04:32:21.375Z,18.81
2018-06-30T04:34:50.856Z,18.82
2018-06-30T04:37:21.486Z,18.82
2018-06-30T04:39:51.314Z,18.82
2018-06-30T04:42:20.825Z,18.83
2018-06-30T04:44:51.832Z,18.84
2018-06-30T04:47:23.202Z,18.85
2018-06-30T04:49:54.057Z,18.86
2018-06-30T04:52:23.675Z,18.87
2018-06-30T04:54:55.159Z,18.87
2018-06-30T04:57:25.848Z,18.87
2018-06-30T05:02:32.012Z,18.91
2018-06-30T05:05:01.561Z,18.91
2018-06-30T05:07:31.562Z,18.92
2018-06-30T05:10:01.156Z,18.96
2018-06-30T05:12:30.669Z,19.03
2018-06-30T05:15:00.764Z,19.10
2018-06-30T05:17:32.413Z,19.09
2018-06-30T05:20:08.837Z,19.09
2018-06-30T05:22:39.659Z,19.12
2018-06-30T05:25:10.833Z,19.14
2018-06-30T05:27:40.593Z,19.13
2018-06-30T05:30:10.211Z,19.13
2018-06-30T05:32:40.728Z,19.12
2018-06-30T05:35:10.230Z,19.13
2018-06-30T05:37:39.778Z,19.14
2018-06-30T05:40:09.482Z,19.15
2018-06-30T05:42:46.152Z,19.16
2018-06-30T05:45:15.689Z,19.16
2018-06-30T05:47:45.243Z,19.18
2018-06-30T05:50:15.333Z,19.19
2018-06-30T05:52:46.841Z,19.20
2018-06-30T05:55:17.957Z,19.20
2018-06-30T05:57:51.376Z,19.21
2018-06-30T06:00:20.874Z,19.23
2018-06-30T06:02:51.476Z,19.24
2018-06-30T06:05:28.024Z,19.25
2018-06-30T06:07:59.805Z,19.27
2018-06-30T06:10:29.980Z,19.27
2018-06-30T06:13:02.769Z,19.28
2018-06-30T06:15:32.264Z,19.27
2018-06-30T06:18:02.091Z,19.28
2018-06-30T06:20:31.878Z,19.29
2018-06-30T06:23:01.617Z,19.28
2018-06-30T06:25:31.606Z,19.29
2018-06-30T06:28:01.375Z,19.30
2018-06-30T06:30:31.435Z,19.30
2018-06-30T06:33:02.228Z,19.30
2018-06-30T06:35:32.524Z,19.31
2018-06-30T06:38:04.608Z,19.31
2018-06-30T06:40:35.380Z,19.32
2018-06-30T06:43:07.811Z,19.32
2018-06-30T06:45:38.392Z,19.33
2018-06-30T06:48:08.759Z,19.32
2018-06-30T06:50:40.248Z,19.35
2018-06-30T06:53:10.193Z,19.35
2018-06-30T06:55:40.873Z,19.36
2018-06-30T06:58:10.594Z,19.36
2018-06-30T07:00:41.455Z,19.36
2018-06-30T07:03:21.691Z,19.38
2018-06-30T07:05:57.665Z,19.38
2018-06-30T07:08:27.216Z,19.40
2018-06-30T07:10:57.382Z,19.44
2018-06-30T07:13:28.103Z,19.46
2018-06-30T07:15:58.039Z,19.44
2018-06-30T07:18:27.769Z,19.43
2018-06-30T07:20:59.037Z,19.47
2018-06-30T07:23:29.472Z,19.47
2018-06-30T07:26:03.370Z,19.47
2018-06-30T07:28:34.719Z,19.48
2018-06-30T07:31:04.634Z,19.50
2018-06-30T07:33:35.497Z,19.52
2018-06-30T07:36:04.935Z,19.55
2018-06-30T07:38:35.160Z,19.56
2018-06-30T07:41:09.089Z,19.59
2018-06-30T07:43:39.210Z,19.61
2018-06-30T07:46:10.372Z,19.60
2018-06-30T07:48:40.195Z,19.61
2018-06-30T07:51:10.389Z,19.62
2018-06-30T07:53:40.896Z,19.63
2018-06-30T07:56:10.359Z,19.62
2018-06-30T07:58:41.772Z,19.61
2018-06-30T08:01:12.091Z,19.64
2018-06-30T08:03:41.439Z,19.66
2018-06-30T08:06:11.942Z,19.67
2018-06-30T08:08:41.553Z,19.67
2018-06-30T08:11:11.145Z,19.71
2018-06-30T08:13:47.315Z,19.73
2018-06-30T08:16:17.427Z,19.71
2018-06-30T08:18:47.348Z,19.73
2018-06-30T08:21:18.256Z,19.75
2018-06-30T08:23:47.852Z,19.77
2018-06-30T08:26:19.495Z,19.77
2018-06-30T08:29:14.794Z,19.78
2018-06-30T08:31:52.695Z,19.78
2018-06-30T08:34:35.429Z,19.79
2018-06-30T08:37:19.605Z,19.80
2018-06-30T08:40:06.605Z,19.81
2018-06-30T08:42:37.392Z,19.83
2018-06-30T08:45:13.129Z,19.83
2018-06-30T08:47:42.924Z,19.86
2018-06-30T08:50:12.951Z,19.88
2018-06-30T08:56:27.834Z,19.91
2018-06-30T08:58:59.797Z,19.89
2018-06-30T09:01:29.926Z,19.87
2018-06-30T09:07:02.517Z,19.94
2018-06-30T09:09:36.826Z,19.92
2018-06-30T09:12:15.879Z,19.91
2018-06-30T09:14:48.596Z,19.93
2018-06-30T09:17:18.369Z,19.96
2018-06-30T09:19:50.159Z,19.96
2018-06-30T09:23:49.783Z,19.95
2018-06-30T09:26:26.834Z,19.98
2018-06-30T09:29:01.664Z,20.02
2018-06-30T09:34:54.828Z,20.07
2018-06-30T15:47:39.410Z,21.68
2018-06-30T19:26:39.142Z,21.20
2018-06-30T21:53:40.573Z,20.76
2018-06-30T22:09:32.434Z,20.88
2018-06-30T22:12:21.140Z,20.85
2018-06-30T22:15:04.631Z,20.82
2018-06-30T22:30:16.768Z,20.82
2018-06-30T22:33:10.384Z,20.84
2018-06-30T22:36:08.652Z,20.83
2018-06-30T22:39:04.389Z,20.81
2018-06-30T22:41:52.410Z,20.76
2018-06-30T22:44:40.309Z,20.71
2018-06-30T23:26:57.936Z,20.43
2018-06-30T23:41:30.384Z,20.35
2018-06-30T23:52:44.253Z,20.29
2018-06-30T23:55:16.138Z,20.26
2018-06-30T23:58:07.720Z,20.25
